sensor_id;sensor_type;location;lat;lon;timestamp;P1;durP1;ratioP1;P2;durP2;ratioP2
54412;SDS011;41533;51.390;0.074;2023-06-14T00:01:36;2.42;;;1.63;;
54412;SDS011;41533;51.390;0.074;2023-06-14T00:04:05;3.17;;;1.92;;
54412;SDS011;41533;51.390;0.074;2023-06-14T00:06:33;2.72;;;1.70;;
54412;SDS011;41533;51.390;0.074;2023-06-14T00:09:00;2.17;;;1.90;;
54412;SDS011;41533;51.390;0.074;2023-06-14T00:11:28;2.78;;;1.67;;
54412;SDS011;41533;51.390;0.074;2023-06-14T00:13:57;2.63;;;1.77;;
54412;SDS011;41533;51.390;0.074;2023-06-14T00:16:24;1.92;;;1.40;;
54412;SDS011;41533;51.390;0.074;2023-06-14T00:18:51;4.03;;;1.70;;
54412;SDS011;41533;51.390;0.074;2023-06-14T00:21:19;2.65;;;1.55;;
54412;SDS011;41533;51.390;0.074;2023-06-14T00:23:46;3.05;;;1.38;;
54412;SDS011;41533;51.390;0.074;2023-06-14T00:26:14;1.70;;;1.35;;
54412;SDS011;41533;51.390;0.074;2023-06-14T00:28:43;2.30;;;1.50;;
54412;SDS011;41533;51.390;0.074;2023-06-14T00:31:11;3.55;;;1.35;;
54412;SDS011;41533;51.390;0.074;2023-06-14T00:33:38;3.50;;;1.52;;
54412;SDS011;41533;51.390;0.074;2023-06-14T00:36:05;3.83;;;1.67;;
54412;SDS011;41533;51.390;0.074;2023-06-14T00:38:33;3.60;;;1.65;;
54412;SDS011;41533;51.390;0.074;2023-06-14T00:41:01;4.05;;;1.80;;
54412;SDS011;41533;51.390;0.074;2023-06-14T00:43:28;2.67;;;1.55;;
54412;SDS011;41533;51.390;0.074;2023-06-14T00:45:56;3.50;;;1.50;;
54412;SDS011;41533;51.390;0.074;2023-06-14T00:48:23;2.50;;;1.70;;
54412;SDS011;41533;51.390;0.074;2023-06-14T00:50:51;3.80;;;1.90;;
54412;SDS011;41533;51.390;0.074;2023-06-14T00:53:19;1.98;;;1.50;;
54412;SDS011;41533;51.390;0.074;2023-06-14T00:55:47;5.32;;;2.15;;
54412;SDS011;41533;51.390;0.074;2023-06-14T00:58:16;2.75;;;1.92;;
54412;SDS011;41533;51.390;0.074;2023-06-14T01:00:44;2.42;;;1.63;;
54412;SDS011;41533;51.390;0.074;2023-06-14T01:03:11;2.72;;;1.33;;
54412;SDS011;41533;51.390;0.074;2023-06-14T01:05:39;2.70;;;1.38;;
54412;SDS011;41533;51.390;0.074;2023-06-14T01:15:46;2.95;;;1.48;;
54412;SDS011;41533;51.390;0.074;2023-06-14T01:18:14;2.92;;;1.63;;
54412;SDS011;41533;51.390;0.074;2023-06-14T01:20:45;1.63;;;1.35;;
54412;SDS011;41533;51.390;0.074;2023-06-14T01:23:17;3.03;;;1.80;;
54412;SDS011;41533;51.390;0.074;2023-06-14T01:25:45;1.88;;;1.42;;
54412;SDS011;41533;51.390;0.074;2023-06-14T01:28:15;2.60;;;1.65;;
54412;SDS011;41533;51.390;0.074;2023-06-14T01:30:44;3.75;;;1.60;;
54412;SDS011;41533;51.390;0.074;2023-06-14T01:33:14;5.53;;;2.03;;
54412;SDS011;41533;51.390;0.074;2023-06-14T01:35:43;2.45;;;1.20;;
54412;SDS011;41533;51.390;0.074;2023-06-14T01:38:10;2.72;;;1.08;;
54412;SDS011;41533;51.390;0.074;2023-06-14T01:40:39;2.40;;;1.02;;
54412;SDS011;41533;51.390;0.074;2023-06-14T01:43:06;6.78;;;1.67;;
54412;SDS011;41533;51.390;0.074;2023-06-14T01:45:36;3.85;;;1.38;;
54412;SDS011;41533;51.390;0.074;2023-06-14T01:48:04;3.38;;;1.50;;
54412;SDS011;41533;51.390;0.074;2023-06-14T01:50:32;3.33;;;1.70;;
54412;SDS011;41533;51.390;0.074;2023-06-14T01:52:59;3.08;;;1.60;;
54412;SDS011;41533;51.390;0.074;2023-06-14T01:55:26;2.10;;;1.45;;
54412;SDS011;41533;51.390;0.074;2023-06-14T01:57:54;3.03;;;1.60;;
54412;SDS011;41533;51.390;0.074;2023-06-14T02:00:21;2.38;;;1.58;;
54412;SDS011;41533;51.390;0.074;2023-06-14T02:02:52;5.25;;;2.65;;
54412;SDS011;41533;51.390;0.074;2023-06-14T02:05:19;3.05;;;1.25;;
54412;SDS011;41533;51.390;0.074;2023-06-14T02:07:48;4.75;;;1.50;;
54412;SDS011;41533;51.390;0.074;2023-06-14T02:10:17;2.33;;;1.50;;
54412;SDS011;41533;51.390;0.074;2023-06-14T02:12:46;1.48;;;1.20;;
54412;SDS011;41533;51.390;0.074;2023-06-14T02:15:14;3.17;;;1.90;;
54412;SDS011;41533;51.390;0.074;2023-06-14T02:17:45;1.98;;;1.17;;
54412;SDS011;41533;51.390;0.074;2023-06-14T02:20:14;2.88;;;1.40;;
54412;SDS011;41533;51.390;0.074;2023-06-14T02:22:41;2.00;;;1.50;;
54412;SDS011;41533;51.390;0.074;2023-06-14T02:25:09;4.55;;;1.85;;
54412;SDS011;41533;51.390;0.074;2023-06-14T02:27:36;4.10;;;1.88;;
54412;SDS011;41533;51.390;0.074;2023-06-14T02:30:04;1.65;;;1.20;;
54412;SDS011;41533;51.390;0.074;2023-06-14T02:32:32;3.60;;;1.92;;
54412;SDS011;41533;51.390;0.074;2023-06-14T02:35:03;5.90;;;1.85;;
54412;SDS011;41533;51.390;0.074;2023-06-14T02:37:31;2.80;;;1.45;;
54412;SDS011;41533;51.390;0.074;2023-06-14T02:39:58;2.30;;;1.33;;
54412;SDS011;41533;51.390;0.074;2023-06-14T02:42:26;3.13;;;1.80;;
54412;SDS011;41533;51.390;0.074;2023-06-14T02:44:53;2.30;;;1.60;;
54412;SDS011;41533;51.390;0.074;2023-06-14T02:47:20;3.92;;;2.08;;
54412;SDS011;41533;51.390;0.074;2023-06-14T02:49:48;5.25;;;1.60;;
54412;SDS011;41533;51.390;0.074;2023-06-14T02:52:16;2.33;;;0.95;;
54412;SDS011;41533;51.390;0.074;2023-06-14T02:54:43;3.65;;;1.48;;
54412;SDS011;41533;51.390;0.074;2023-06-14T02:57:10;3.42;;;1.52;;
54412;SDS011;41533;51.390;0.074;2023-06-14T02:59:40;5.80;;;2.08;;
54412;SDS011;41533;51.390;0.074;2023-06-14T03:02:08;2.45;;;1.73;;
54412;SDS011;41533;51.390;0.074;2023-06-14T03:04:35;1.92;;;1.27;;
54412;SDS011;41533;51.390;0.074;2023-06-14T03:07:09;9.32;;;2.38;;
54412;SDS011;41533;51.390;0.074;2023-06-14T03:09:39;5.53;;;1.88;;
54412;SDS011;41533;51.390;0.074;2023-06-14T03:12:09;4.90;;;1.63;;
54412;SDS011;41533;51.390;0.074;2023-06-14T03:14:39;6.68;;;1.73;;
54412;SDS011;41533;51.390;0.074;2023-06-14T03:17:07;5.03;;;1.50;;
54412;SDS011;41533;51.390;0.074;2023-06-14T03:19:38;4.45;;;1.88;;
54412;SDS011;41533;51.390;0.074;2023-06-14T03:22:06;4.43;;;2.63;;
54412;SDS011;41533;51.390;0.074;2023-06-14T03:24:36;3.25;;;1.35;;
54412;SDS011;41533;51.390;0.074;2023-06-14T03:27:09;3.47;;;1.58;;
54412;SDS011;41533;51.390;0.074;2023-06-14T03:29:41;2.33;;;1.17;;
54412;SDS011;41533;51.390;0.074;2023-06-14T03:32:08;3.10;;;1.30;;
54412;SDS011;41533;51.390;0.074;2023-06-14T03:34:41;4.35;;;1.48;;
54412;SDS011;41533;51.390;0.074;2023-06-14T03:37:15;3.53;;;1.50;;
54412;SDS011;41533;51.390;0.074;2023-06-14T03:39:42;2.00;;;1.08;;
54412;SDS011;41533;51.390;0.074;2023-06-14T03:42:17;2.53;;;1.42;;
54412;SDS011;41533;51.390;0.074;2023-06-14T03:44:47;4.47;;;1.98;;
54412;SDS011;41533;51.390;0.074;2023-06-14T03:47:14;4.30;;;1.80;;
54412;SDS011;41533;51.390;0.074;2023-06-14T03:49:42;4.82;;;1.85;;
54412;SDS011;41533;51.390;0.074;2023-06-14T03:52:10;3.25;;;1.20;;
54412;SDS011;41533;51.390;0.074;2023-06-14T03:54:39;2.72;;;1.95;;
54412;SDS011;41533;51.390;0.074;2023-06-14T03:57:29;3.03;;;1.42;;
54412;SDS011;41533;51.390;0.074;2023-06-14T03:59:56;3.65;;;1.77;;
54412;SDS011;41533;51.390;0.074;2023-06-14T04:02:26;3.25;;;1.83;;
54412;SDS011;41533;51.390;0.074;2023-06-14T04:04:56;2.42;;;1.45;;
54412;SDS011;41533;51.390;0.074;2023-06-14T04:07:23;3.10;;;1.98;;
54412;SDS011;41533;51.390;0.074;2023-06-14T04:09:52;2.65;;;1.60;;
54412;SDS011;41533;51.390;0.074;2023-06-14T04:12:19;2.42;;;1.38;;
54412;SDS011;41533;51.390;0.074;2023-06-14T04:14:47;6.57;;;1.65;;
54412;SDS011;41533;51.390;0.074;2023-06-14T04:17:15;2.22;;;1.30;;
54412;SDS011;41533;51.390;0.074;2023-06-14T04:19:44;5.43;;;2.03;;
54412;SDS011;41533;51.390;0.074;2023-06-14T04:22:12;3.22;;;1.75;;
54412;SDS011;41533;51.390;0.074;2023-06-14T04:24:40;3.75;;;1.52;;
54412;SDS011;41533;51.390;0.074;2023-06-14T04:27:10;7.13;;;1.88;;
54412;SDS011;41533;51.390;0.074;2023-06-14T04:29:38;2.25;;;1.48;;
54412;SDS011;41533;51.390;0.074;2023-06-14T04:32:10;2.50;;;1.40;;
54412;SDS011;41533;51.390;0.074;2023-06-14T04:34:41;3.83;;;1.30;;
54412;SDS011;41533;51.390;0.074;2023-06-14T04:37:08;2.33;;;1.40;;
54412;SDS011;41533;51.390;0.074;2023-06-14T04:39:39;2.80;;;1.67;;
54412;SDS011;41533;51.390;0.074;2023-06-14T04:42:07;4.90;;;1.45;;
54412;SDS011;41533;51.390;0.074;2023-06-14T04:44:35;4.75;;;1.75;;
54412;SDS011;41533;51.390;0.074;2023-06-14T04:47:04;2.60;;;1.38;;
54412;SDS011;41533;51.390;0.074;2023-06-14T04:49:34;3.28;;;1.65;;
54412;SDS011;41533;51.390;0.074;2023-06-14T04:52:01;4.45;;;1.48;;
54412;SDS011;41533;51.390;0.074;2023-06-14T04:54:36;3.88;;;1.50;;
54412;SDS011;41533;51.390;0.074;2023-06-14T04:57:06;2.45;;;1.67;;
54412;SDS011;41533;51.390;0.074;2023-06-14T04:59:34;3.67;;;1.60;;
54412;SDS011;41533;51.390;0.074;2023-06-14T05:02:02;4.47;;;2.00;;
54412;SDS011;41533;51.390;0.074;2023-06-14T05:04:30;3.53;;;2.10;;
54412;SDS011;41533;51.390;0.074;2023-06-14T05:06:58;2.67;;;1.63;;
54412;SDS011;41533;51.390;0.074;2023-06-14T05:09:26;3.83;;;2.03;;
54412;SDS011;41533;51.390;0.074;2023-06-14T05:11:53;5.30;;;1.80;;
54412;SDS011;41533;51.390;0.074;2023-06-14T05:14:21;3.03;;;1.70;;
54412;SDS011;41533;51.390;0.074;2023-06-14T05:16:50;6.70;;;2.30;;
54412;SDS011;41533;51.390;0.074;2023-06-14T05:19:18;3.38;;;1.35;;
54412;SDS011;41533;51.390;0.074;2023-06-14T05:21:47;4.25;;;1.95;;
54412;SDS011;41533;51.390;0.074;2023-06-14T05:24:15;3.53;;;1.67;;
54412;SDS011;41533;51.390;0.074;2023-06-14T05:26:44;3.58;;;1.45;;
54412;SDS011;41533;51.390;0.074;2023-06-14T05:29:11;3.10;;;1.73;;
54412;SDS011;41533;51.390;0.074;2023-06-14T05:31:39;3.78;;;1.52;;
54412;SDS011;41533;51.390;0.074;2023-06-14T05:34:06;2.47;;;1.50;;
54412;SDS011;41533;51.390;0.074;2023-06-14T05:36:34;9.45;;;2.40;;
54412;SDS011;41533;51.390;0.074;2023-06-14T05:39:04;2.35;;;1.40;;
54412;SDS011;41533;51.390;0.074;2023-06-14T05:41:32;2.80;;;1.48;;
54412;SDS011;41533;51.390;0.074;2023-06-14T05:44:00;2.42;;;1.65;;
54412;SDS011;41533;51.390;0.074;2023-06-14T05:46:28;5.20;;;1.73;;
54412;SDS011;41533;51.390;0.074;2023-06-14T05:48:55;4.25;;;1.73;;
54412;SDS011;41533;51.390;0.074;2023-06-14T05:51:23;2.92;;;1.48;;
54412;SDS011;41533;51.390;0.074;2023-06-14T05:53:52;1.98;;;1.60;;
54412;SDS011;41533;51.390;0.074;2023-06-14T05:56:19;3.20;;;2.00;;
54412;SDS011;41533;51.390;0.074;2023-06-14T05:58:47;2.47;;;1.73;;
54412;SDS011;41533;51.390;0.074;2023-06-14T06:01:14;7.45;;;1.83;;
54412;SDS011;41533;51.390;0.074;2023-06-14T06:03:42;5.03;;;1.80;;
54412;SDS011;41533;51.390;0.074;2023-06-14T06:06:13;4.97;;;2.28;;
54412;SDS011;41533;51.390;0.074;2023-06-14T06:08:41;3.75;;;1.83;;
54412;SDS011;41533;51.390;0.074;2023-06-14T06:11:08;6.15;;;1.85;;
54412;SDS011;41533;51.390;0.074;2023-06-14T06:13:36;5.40;;;1.80;;
54412;SDS011;41533;51.390;0.074;2023-06-14T06:16:03;3.60;;;2.08;;
54412;SDS011;41533;51.390;0.074;2023-06-14T06:18:31;3.28;;;1.80;;
54412;SDS011;41533;51.390;0.074;2023-06-14T06:20:59;3.28;;;1.77;;
54412;SDS011;41533;51.390;0.074;2023-06-14T06:23:26;4.32;;;1.95;;
54412;SDS011;41533;51.390;0.074;2023-06-14T06:25:54;3.08;;;1.95;;
54412;SDS011;41533;51.390;0.074;2023-06-14T06:28:21;2.72;;;1.48;;
54412;SDS011;41533;51.390;0.074;2023-06-14T06:30:49;5.68;;;2.00;;
54412;SDS011;41533;51.390;0.074;2023-06-14T06:33:17;3.95;;;1.67;;
54412;SDS011;41533;51.390;0.074;2023-06-14T06:35:44;7.53;;;1.98;;
54412;SDS011;41533;51.390;0.074;2023-06-14T06:38:12;5.55;;;2.00;;
54412;SDS011;41533;51.390;0.074;2023-06-14T06:40:39;2.85;;;1.58;;
54412;SDS011;41533;51.390;0.074;2023-06-14T06:43:07;4.07;;;1.90;;
54412;SDS011;41533;51.390;0.074;2023-06-14T06:45:41;5.82;;;1.98;;
54412;SDS011;41533;51.390;0.074;2023-06-14T06:48:08;1.65;;;1.45;;
54412;SDS011;41533;51.390;0.074;2023-06-14T06:50:39;4.32;;;1.58;;
54412;SDS011;41533;51.390;0.074;2023-06-14T06:53:06;3.42;;;1.80;;
54412;SDS011;41533;51.390;0.074;2023-06-14T06:55:34;5.78;;;1.70;;
54412;SDS011;41533;51.390;0.074;2023-06-14T06:58:01;3.88;;;1.67;;
54412;SDS011;41533;51.390;0.074;2023-06-14T07:00:31;3.33;;;1.83;;
54412;SDS011;41533;51.390;0.074;2023-06-14T07:02:59;4.05;;;1.38;;
54412;SDS011;41533;51.390;0.074;2023-06-14T07:05:26;2.92;;;1.88;;
54412;SDS011;41533;51.390;0.074;2023-06-14T07:07:53;4.00;;;2.30;;
54412;SDS011;41533;51.390;0.074;2023-06-14T07:10:24;2.28;;;1.40;;
54412;SDS011;41533;51.390;0.074;2023-06-14T07:12:54;3.55;;;1.75;;
54412;SDS011;41533;51.390;0.074;2023-06-14T07:15:22;2.45;;;1.30;;
54412;SDS011;41533;51.390;0.074;2023-06-14T07:17:49;3.60;;;1.48;;
54412;SDS011;41533;51.390;0.074;2023-06-14T07:20:17;5.05;;;2.25;;
54412;SDS011;41533;51.390;0.074;2023-06-14T07:22:45;3.42;;;1.58;;
54412;SDS011;41533;51.390;0.074;2023-06-14T07:25:14;3.83;;;1.70;;
54412;SDS011;41533;51.390;0.074;2023-06-14T07:27:42;3.08;;;1.52;;
54412;SDS011;41533;51.390;0.074;2023-06-14T07:30:10;4.78;;;2.00;;
54412;SDS011;41533;51.390;0.074;2023-06-14T07:32:38;4.80;;;1.42;;
54412;SDS011;41533;51.390;0.074;2023-06-14T07:35:06;8.10;;;2.10;;
54412;SDS011;41533;51.390;0.074;2023-06-14T07:37:33;4.70;;;1.90;;
54412;SDS011;41533;51.390;0.074;2023-06-14T07:40:01;2.70;;;1.60;;
54412;SDS011;41533;51.390;0.074;2023-06-14T07:42:31;4.53;;;1.92;;
54412;SDS011;41533;51.390;0.074;2023-06-14T07:44:58;2.50;;;1.95;;
54412;SDS011;41533;51.390;0.074;2023-06-14T07:47:26;4.90;;;1.77;;
54412;SDS011;41533;51.390;0.074;2023-06-14T07:49:53;5.43;;;1.95;;
54412;SDS011;41533;51.390;0.074;2023-06-14T07:52:21;3.60;;;1.90;;
54412;SDS011;41533;51.390;0.074;2023-06-14T07:54:49;1.98;;;1.50;;
54412;SDS011;41533;51.390;0.074;2023-06-14T07:57:16;3.25;;;1.73;;
54412;SDS011;41533;51.390;0.074;2023-06-14T07:59:43;5.55;;;1.77;;
54412;SDS011;41533;51.390;0.074;2023-06-14T08:02:11;3.53;;;2.20;;
54412;SDS011;41533;51.390;0.074;2023-06-14T08:04:38;5.95;;;1.85;;
54412;SDS011;41533;51.390;0.074;2023-06-14T08:07:06;7.43;;;2.00;;
54412;SDS011;41533;51.390;0.074;2023-06-14T08:09:34;5.30;;;2.15;;
54412;SDS011;41533;51.390;0.074;2023-06-14T08:12:02;3.80;;;1.98;;
54412;SDS011;41533;51.390;0.074;2023-06-14T08:14:29;4.43;;;2.30;;
54412;SDS011;41533;51.390;0.074;2023-06-14T08:16:58;8.48;;;2.40;;
54412;SDS011;41533;51.390;0.074;2023-06-14T08:19:25;5.05;;;2.22;;
54412;SDS011;41533;51.390;0.074;2023-06-14T08:21:53;2.60;;;1.60;;
54412;SDS011;41533;51.390;0.074;2023-06-14T08:24:22;5.60;;;2.22;;
54412;SDS011;41533;51.390;0.074;2023-06-14T08:26:54;3.10;;;1.73;;
54412;SDS011;41533;51.390;0.074;2023-06-14T08:29:21;3.17;;;1.83;;
54412;SDS011;41533;51.390;0.074;2023-06-14T08:31:48;5.40;;;2.20;;
54412;SDS011;41533;51.390;0.074;2023-06-14T08:34:16;2.65;;;1.63;;
54412;SDS011;41533;51.390;0.074;2023-06-14T08:36:43;3.97;;;2.17;;
54412;SDS011;41533;51.390;0.074;2023-06-14T08:39:11;3.97;;;1.63;;
54412;SDS011;41533;51.390;0.074;2023-06-14T08:41:38;4.68;;;1.73;;
54412;SDS011;41533;51.390;0.074;2023-06-14T08:44:05;4.05;;;2.03;;
54412;SDS011;41533;51.390;0.074;2023-06-14T08:46:34;2.88;;;1.95;;
54412;SDS011;41533;51.390;0.074;2023-06-14T08:49:03;5.85;;;2.10;;
54412;SDS011;41533;51.390;0.074;2023-06-14T08:51:32;5.03;;;2.03;;
54412;SDS011;41533;51.390;0.074;2023-06-14T08:54:03;2.75;;;1.85;;
54412;SDS011;41533;51.390;0.074;2023-06-14T08:56:31;4.63;;;1.98;;
54412;SDS011;41533;51.390;0.074;2023-06-14T08:58:58;2.45;;;1.73;;
54412;SDS011;41533;51.390;0.074;2023-06-14T09:01:33;3.20;;;1.80;;
54412;SDS011;41533;51.390;0.074;2023-06-14T09:04:01;4.38;;;2.00;;
54412;SDS011;41533;51.390;0.074;2023-06-14T09:06:29;5.45;;;2.30;;
54412;SDS011;41533;51.390;0.074;2023-06-14T09:08:57;3.70;;;1.88;;
54412;SDS011;41533;51.390;0.074;2023-06-14T09:11:24;2.90;;;1.98;;
54412;SDS011;41533;51.390;0.074;2023-06-14T09:13:53;4.50;;;1.52;;
54412;SDS011;41533;51.390;0.074;2023-06-14T09:16:21;2.67;;;2.00;;
54412;SDS011;41533;51.390;0.074;2023-06-14T09:18:48;2.97;;;2.08;;
54412;SDS011;41533;51.390;0.074;2023-06-14T09:21:16;3.05;;;2.03;;
54412;SDS011;41533;51.390;0.074;2023-06-14T09:23:44;6.45;;;2.38;;
54412;SDS011;41533;51.390;0.074;2023-06-14T09:26:16;3.97;;;2.13;;
54412;SDS011;41533;51.390;0.074;2023-06-14T09:28:44;1.77;;;1.52;;
54412;SDS011;41533;51.390;0.074;2023-06-14T09:31:15;4.45;;;1.60;;
54412;SDS011;41533;51.390;0.074;2023-06-14T09:33:43;7.20;;;2.40;;
54412;SDS011;41533;51.390;0.074;2023-06-14T09:36:26;5.28;;;1.90;;
54412;SDS011;41533;51.390;0.074;2023-06-14T09:41:31;3.28;;;2.22;;
54412;SDS011;41533;51.390;0.074;2023-06-14T09:44:00;4.25;;;2.45;;
54412;SDS011;41533;51.390;0.074;2023-06-14T09:46:27;5.78;;;2.40;;
54412;SDS011;41533;51.390;0.074;2023-06-14T09:48:57;2.83;;;2.03;;
54412;SDS011;41533;51.390;0.074;2023-06-14T09:51:24;7.95;;;2.30;;
54412;SDS011;41533;51.390;0.074;2023-06-14T09:53:53;3.97;;;2.28;;
54412;SDS011;41533;51.390;0.074;2023-06-14T09:56:23;3.28;;;2.13;;
54412;SDS011;41533;51.390;0.074;2023-06-14T09:58:54;5.82;;;1.95;;
54412;SDS011;41533;51.390;0.074;2023-06-14T10:01:33;3.83;;;2.13;;
54412;SDS011;41533;51.390;0.074;2023-06-14T10:04:03;4.38;;;2.20;;
54412;SDS011;41533;51.390;0.074;2023-06-14T10:06:36;3.47;;;2.20;;
54412;SDS011;41533;51.390;0.074;2023-06-14T10:09:04;5.55;;;1.98;;
54412;SDS011;41533;51.390;0.074;2023-06-14T10:11:35;5.03;;;2.67;;
54412;SDS011;41533;51.390;0.074;2023-06-14T10:14:04;6.78;;;2.33;;
54412;SDS011;41533;51.390;0.074;2023-06-14T10:17:20;3.88;;;2.15;;
54412;SDS011;41533;51.390;0.074;2023-06-14T10:24:20;3.47;;;2.03;;
54412;SDS011;41533;51.390;0.074;2023-06-14T10:26:51;3.63;;;2.30;;
54412;SDS011;41533;51.390;0.074;2023-06-14T10:29:19;3.20;;;2.05;;
54412;SDS011;41533;51.390;0.074;2023-06-14T10:31:47;2.83;;;1.75;;
54412;SDS011;41533;51.390;0.074;2023-06-14T10:34:21;7.15;;;2.58;;
54412;SDS011;41533;51.390;0.074;2023-06-14T10:39:30;5.30;;;2.30;;
54412;SDS011;41533;51.390;0.074;2023-06-14T10:41:57;4.43;;;2.40;;
54412;SDS011;41533;51.390;0.074;2023-06-14T10:47:09;4.45;;;2.38;;
54412;SDS011;41533;51.390;0.074;2023-06-14T10:52:09;6.03;;;3.40;;
54412;SDS011;41533;51.390;0.074;2023-06-14T10:55:00;4.68;;;2.55;;
54412;SDS011;41533;51.390;0.074;2023-06-14T10:57:39;3.20;;;2.33;;
54412;SDS011;41533;51.390;0.074;2023-06-14T11:00:21;4.35;;;2.60;;
54412;SDS011;41533;51.390;0.074;2023-06-14T11:05:30;4.63;;;2.75;;
54412;SDS011;41533;51.390;0.074;2023-06-14T11:10:40;5.78;;;2.40;;
54412;SDS011;41533;51.390;0.074;2023-06-14T11:13:08;5.00;;;2.72;;
54412;SDS011;41533;51.390;0.074;2023-06-14T11:15:36;6.28;;;2.70;;
54412;SDS011;41533;51.390;0.074;2023-06-14T11:18:04;4.63;;;2.67;;
54412;SDS011;41533;51.390;0.074;2023-06-14T11:20:33;4.13;;;2.30;;
54412;SDS011;41533;51.390;0.074;2023-06-14T11:23:01;8.18;;;3.03;;
54412;SDS011;41533;51.390;0.074;2023-06-14T11:25:28;4.80;;;2.42;;
54412;SDS011;41533;51.390;0.074;2023-06-14T11:27:56;7.25;;;2.60;;
54412;SDS011;41533;51.390;0.074;2023-06-14T11:30:24;6.88;;;3.45;;
54412;SDS011;41533;51.390;0.074;2023-06-14T11:32:55;8.13;;;3.20;;
54412;SDS011;41533;51.390;0.074;2023-06-14T11:35:25;6.72;;;2.55;;
54412;SDS011;41533;51.390;0.074;2023-06-14T11:37:55;5.68;;;3.45;;
54412;SDS011;41533;51.390;0.074;2023-06-14T11:40:26;4.30;;;2.47;;
54412;SDS011;41533;51.390;0.074;2023-06-14T11:43:01;5.35;;;2.88;;
54412;SDS011;41533;51.390;0.074;2023-06-14T11:45:29;4.05;;;2.67;;
54412;SDS011;41533;51.390;0.074;2023-06-14T11:47:57;5.30;;;2.58;;
54412;SDS011;41533;51.390;0.074;2023-06-14T11:50:25;4.32;;;2.53;;
54412;SDS011;41533;51.390;0.074;2023-06-14T11:52:56;5.47;;;2.88;;
54412;SDS011;41533;51.390;0.074;2023-06-14T11:55:23;8.75;;;3.50;;
54412;SDS011;41533;51.390;0.074;2023-06-14T11:57:53;6.90;;;2.85;;
54412;SDS011;41533;51.390;0.074;2023-06-14T12:00:24;6.15;;;2.90;;
54412;SDS011;41533;51.390;0.074;2023-06-14T12:02:52;4.82;;;2.90;;
54412;SDS011;41533;51.390;0.074;2023-06-14T12:05:20;4.30;;;2.80;;
54412;SDS011;41533;51.390;0.074;2023-06-14T12:07:49;9.25;;;2.70;;
54412;SDS011;41533;51.390;0.074;2023-06-14T12:10:17;9.52;;;4.22;;
54412;SDS011;41533;51.390;0.074;2023-06-14T12:12:44;4.50;;;2.85;;
54412;SDS011;41533;51.390;0.074;2023-06-14T12:15:12;5.78;;;2.95;;
54412;SDS011;41533;51.390;0.074;2023-06-14T12:17:41;6.32;;;2.78;;
54412;SDS011;41533;51.390;0.074;2023-06-14T12:20:10;5.47;;;2.97;;
54412;SDS011;41533;51.390;0.074;2023-06-14T12:22:38;7.13;;;2.60;;
54412;SDS011;41533;51.390;0.074;2023-06-14T12:25:06;4.65;;;3.28;;
54412;SDS011;41533;51.390;0.074;2023-06-14T12:27:33;4.72;;;2.78;;
54412;SDS011;41533;51.390;0.074;2023-06-14T12:30:01;4.45;;;2.80;;
54412;SDS011;41533;51.390;0.074;2023-06-14T12:32:31;5.47;;;3.28;;
54412;SDS011;41533;51.390;0.074;2023-06-14T12:34:58;4.72;;;2.50;;
54412;SDS011;41533;51.390;0.074;2023-06-14T12:37:25;5.97;;;3.00;;
54412;SDS011;41533;51.390;0.074;2023-06-14T12:39:53;5.28;;;3.17;;
54412;SDS011;41533;51.390;0.074;2023-06-14T12:42:20;4.88;;;2.60;;
54412;SDS011;41533;51.390;0.074;2023-06-14T12:44:47;6.57;;;2.72;;
54412;SDS011;41533;51.390;0.074;2023-06-14T12:47:14;3.30;;;2.67;;
54412;SDS011;41533;51.390;0.074;2023-06-14T12:49:42;3.83;;;2.60;;
54412;SDS011;41533;51.390;0.074;2023-06-14T12:52:10;4.75;;;2.58;;
54412;SDS011;41533;51.390;0.074;2023-06-14T12:54:38;3.53;;;2.60;;
54412;SDS011;41533;51.390;0.074;2023-06-14T12:57:07;4.88;;;3.17;;
54412;SDS011;41533;51.390;0.074;2023-06-14T12:59:35;4.95;;;2.60;;
54412;SDS011;41533;51.390;0.074;2023-06-14T13:02:18;4.43;;;3.30;;
54412;SDS011;41533;51.390;0.074;2023-06-14T13:04:46;3.50;;;2.42;;
54412;SDS011;41533;51.390;0.074;2023-06-14T13:07:13;4.45;;;2.42;;
54412;SDS011;41533;51.390;0.074;2023-06-14T13:09:42;5.07;;;2.80;;
54412;SDS011;41533;51.390;0.074;2023-06-14T13:12:10;4.40;;;2.50;;
54412;SDS011;41533;51.390;0.074;2023-06-14T13:14:40;3.08;;;2.67;;
54412;SDS011;41533;51.390;0.074;2023-06-14T13:17:08;3.65;;;2.45;;
54412;SDS011;41533;51.390;0.074;2023-06-14T13:19:37;3.65;;;2.55;;
54412;SDS011;41533;51.390;0.074;2023-06-14T13:22:04;3.35;;;2.33;;
54412;SDS011;41533;51.390;0.074;2023-06-14T13:24:32;4.70;;;2.47;;
54412;SDS011;41533;51.390;0.074;2023-06-14T13:26:59;3.70;;;3.00;;
54412;SDS011;41533;51.390;0.074;2023-06-14T13:29:27;4.82;;;2.75;;
54412;SDS011;41533;51.390;0.074;2023-06-14T13:31:54;4.50;;;2.58;;
54412;SDS011;41533;51.390;0.074;2023-06-14T13:34:22;4.70;;;2.65;;
54412;SDS011;41533;51.390;0.074;2023-06-14T13:36:49;3.20;;;2.53;;
54412;SDS011;41533;51.390;0.074;2023-06-14T13:39:17;6.68;;;3.00;;
54412;SDS011;41533;51.390;0.074;2023-06-14T13:41:44;5.20;;;2.75;;
54412;SDS011;41533;51.390;0.074;2023-06-14T13:44:11;5.60;;;2.70;;
54412;SDS011;41533;51.390;0.074;2023-06-14T13:46:43;3.58;;;2.70;;
54412;SDS011;41533;51.390;0.074;2023-06-14T13:49:11;3.53;;;2.60;;
54412;SDS011;41533;51.390;0.074;2023-06-14T13:51:39;4.10;;;2.80;;
54412;SDS011;41533;51.390;0.074;2023-06-14T13:54:07;5.22;;;3.05;;
54412;SDS011;41533;51.390;0.074;2023-06-14T13:56:34;2.75;;;2.47;;
54412;SDS011;41533;51.390;0.074;2023-06-14T13:59:01;4.28;;;2.90;;
54412;SDS011;41533;51.390;0.074;2023-06-14T14:01:28;5.35;;;3.10;;
54412;SDS011;41533;51.390;0.074;2023-06-14T14:03:56;7.00;;;2.80;;
54412;SDS011;41533;51.390;0.074;2023-06-14T14:06:28;6.53;;;3.27;;
54412;SDS011;41533;51.390;0.074;2023-06-14T14:08:56;5.22;;;2.92;;
54412;SDS011;41533;51.390;0.074;2023-06-14T14:11:23;5.13;;;2.80;;
54412;SDS011;41533;51.390;0.074;2023-06-14T14:13:50;3.42;;;2.85;;
54412;SDS011;41533;51.390;0.074;2023-06-14T14:16:18;4.72;;;2.80;;
54412;SDS011;41533;51.390;0.074;2023-06-14T14:18:46;6.57;;;2.80;;
54412;SDS011;41533;51.390;0.074;2023-06-14T14:21:13;4.03;;;3.10;;
54412;SDS011;41533;51.390;0.074;2023-06-14T14:23:41;7.28;;;3.08;;
54412;SDS011;41533;51.390;0.074;2023-06-14T14:26:08;3.95;;;3.20;;
54412;SDS011;41533;51.390;0.074;2023-06-14T14:28:35;4.25;;;3.00;;
54412;SDS011;41533;51.390;0.074;2023-06-14T14:31:03;5.15;;;3.40;;
54412;SDS011;41533;51.390;0.074;2023-06-14T14:33:30;4.47;;;3.10;;
54412;SDS011;41533;51.390;0.074;2023-06-14T14:35:57;3.67;;;3.10;;
54412;SDS011;41533;51.390;0.074;2023-06-14T14:38:25;4.82;;;3.55;;
54412;SDS011;41533;51.390;0.074;2023-06-14T14:40:52;3.92;;;3.05;;
54412;SDS011;41533;51.390;0.074;2023-06-14T14:43:19;7.25;;;3.53;;
54412;SDS011;41533;51.390;0.074;2023-06-14T14:45:46;4.18;;;3.03;;
54412;SDS011;41533;51.390;0.074;2023-06-14T14:48:14;4.68;;;3.22;;
54412;SDS011;41533;51.390;0.074;2023-06-14T14:50:41;4.30;;;3.45;;
54412;SDS011;41533;51.390;0.074;2023-06-14T14:53:08;5.03;;;3.00;;
54412;SDS011;41533;51.390;0.074;2023-06-14T14:55:36;5.78;;;3.10;;
54412;SDS011;41533;51.390;0.074;2023-06-14T14:58:05;4.00;;;2.95;;
54412;SDS011;41533;51.390;0.074;2023-06-14T15:00:34;4.50;;;3.15;;
54412;SDS011;41533;51.390;0.074;2023-06-14T15:03:01;4.10;;;3.15;;
54412;SDS011;41533;51.390;0.074;2023-06-14T15:05:29;8.60;;;3.15;;
54412;SDS011;41533;51.390;0.074;2023-06-14T15:07:57;5.00;;;2.72;;
54412;SDS011;41533;51.390;0.074;2023-06-14T15:10:24;6.85;;;3.15;;
54412;SDS011;41533;51.390;0.074;2023-06-14T15:12:52;3.40;;;3.05;;
54412;SDS011;41533;51.390;0.074;2023-06-14T15:15:19;5.00;;;2.65;;
54412;SDS011;41533;51.390;0.074;2023-06-14T15:17:46;6.15;;;2.95;;
54412;SDS011;41533;51.390;0.074;2023-06-14T15:20:14;3.13;;;2.42;;
54412;SDS011;41533;51.390;0.074;2023-06-14T15:22:42;7.65;;;2.78;;
54412;SDS011;41533;51.390;0.074;2023-06-14T15:25:09;3.88;;;2.63;;